Flight Track Log - Related Links

Times and Time Zones

All times are in EDT time to prevent confusion due to time zone crossing. See the CTL22 flight status page for this flight to view local times or setup timezone preferences in your user account.

Time Position Orientation Groundspeed Altitude Reporting Facility
EDT Latitude Longitude Course Direction KTS MPH feet Rate Location/Type
Fri 09:33:18 PM 41.5436 -81.7372 308° West 139 160 2,000  Level Cleveland Center
Fri 09:34:19 PM 41.5597 -81.7764 299° West 129 148 3,200 992 Climbing Cleveland Center
Fri 09:35:19 PM 41.5800 -81.8211 301° West 143 165 4,000 756 Climbing Cleveland Center
Fri 09:36:26 PM 41.6025 -81.8772 298° West 147 169 4,800 750 Climbing Cleveland Center
Fri 09:37:27 PM 41.6206 -81.9219 298° West 144 166 5,600 645 Climbing Cleveland Center
Fri 09:38:27 PM 41.6389 -81.9722 296° West 144 166 6,100 248 Climbing Cleveland Center
Fri 09:39:28 PM 41.6592 -82.0256 297° West 161 185 6,100 50 Level Cleveland Center
Fri 09:40:28 PM 41.6811 -82.0817 298° West 170 196 6,200  Climbing Cleveland Center
Fri 09:41:29 PM 41.7014 -82.1406 295° West 171 197 6,100 -49 Descending Cleveland Center
Fri 09:42:30 PM 41.7172 -82.1994 290° West 171 197 6,100  Level Cleveland Center
Fri 09:43:30 PM 41.7372 -82.2583 294° West 168 193 6,100 62 Level Cleveland Center
Fri 09:44:07 PM 41.7514 -82.2892 302° West 168 193 6,200  Climbing Cleveland Center
Fri 09:44:44 PM 41.7633 -82.3258 294° West 166 191 6,100 -132 Descending Cleveland Center
Fri 09:45:38 PM 41.7833 -82.3764 298° West 169 194 6,000  Descending Cleveland Center
Fri 09:46:39 PM 41.8033 -82.4300 297° West 167 192 6,100 45 Climbing Cleveland Center
Fri 09:47:52 PM 41.8314 -82.5006 298° West 166 191 6,100  Level Cleveland Center
Fri 09:48:52 PM 41.8514 -82.5539 297° West 165 190 6,100  Level Cleveland Center
Fri 09:49:53 PM 41.8689 -82.6131 292° West 166 191 6,100  Level Cleveland Center
Fri 09:50:41 PM 41.8850 -82.6556 297° West 166 191 6,100  Level Cleveland Center
Fri 09:51:42 PM 41.9131 -82.7067 306° West 166 191 6,100  Level Cleveland Center
Fri 09:52:43 PM 41.9392 -82.7606 303° West 167 192 6,100 52 Level Cleveland Center
Fri 09:53:37 PM 41.9614 -82.8086 302° West 165 190 6,200  Climbing Cleveland Center
Fri 09:54:44 PM 41.9894 -82.8656 304° West 166 191 6,100 -47 Descending Cleveland Center
Fri 09:55:45 PM 42.0153 -82.9197 303° West 167 192 6,100  Level Cleveland Center
Fri 09:56:39 PM 42.0414 -82.9653 308° West 169 194 6,100  Level Cleveland Center
Fri 09:57:46 PM 42.0717 -83.0197 307° West 169 194 6,100 47 Level Cleveland Center
Fri 09:58:46 PM 42.1019 -83.0683 310° West 167 192 6,200 52 Climbing Cleveland Center
Fri 09:59:41 PM 42.1239 -83.1139 303° West 165 190 6,200 55 Level Cleveland Center
Fri 10:00:36 PM 42.1542 -83.1600 312° West 167 192 6,300 -52 Climbing Cleveland Center
Fri 10:01:36 PM 42.1822 -83.2089 308° West 170 196 6,100 -99 Descending Cleveland Center
Fri 10:02:37 PM 42.2081 -83.2631 303° West 169 194 6,100  Level Cleveland Center
Fri 10:03:38 PM 42.2275 -83.3200 295° West 165 190 6,100 50 Level Cleveland Center
Fri 10:04:38 PM 42.2428 -83.3797 289° West 165 190 6,200 99 Climbing Cleveland Center
Fri 10:05:39 PM 42.2581 -83.4392 289° West 170 196 6,300  Climbing Cleveland Center
Fri 10:06:39 PM 42.2794 -83.4964 297° West 169 194 6,200 -94 Descending Cleveland Center
Fri 10:07:46 PM 42.3008 -83.5564 296° West 171 197 6,100 -47 Descending Cleveland Center
Fri 10:08:47 PM 42.3181 -83.6161 291° West 166 191 6,100 47 Level Cleveland Center
Fri 10:09:53 PM 42.3436 -83.6764 300° West 164 189 6,200 50 Climbing Cleveland Center
Fri 10:10:48 PM 42.3608 -83.7306 293° West 166 191 6,200  Level Cleveland Center
Fri 10:11:49 PM 42.3781 -83.7875 292° West 172 198 6,200 -41 Level Cleveland Center
Fri 10:13:00 PM 42.3946 -83.8549 288° West  Level FlightAware Approximate
Fri 10:15:39 PM 42.4367 -84.0039 291° West 163 188 6,000  Level Chicago Center
Fri 10:16:40 PM 42.4544 -84.0625 292° West 168 193 6,100 49 Climbing Chicago Center
Fri 10:17:41 PM 42.4703 -84.1206 290° West 166 191 6,100 -33 Level Chicago Center
Fri 10:19:43 PM 42.5061 -84.2525 290° West 170 196 6,000 -33 Descending Chicago Center
Fri 10:20:00 PM 42.4981 -84.2523 291° West  Level FlightAware Approximate
Fri 10:20:43 PM 42.5233 -84.3106 292° West 169 194 6,000  Level Chicago Center
Fri 10:21:44 PM 42.5411 -84.3681 293° West 167 192 6,100  Climbing Chicago Center
Fri 10:22:45 PM 42.5572 -84.4256 291° West 164 189 6,000  Descending Chicago Center
Fri 10:23:46 PM 42.5747 -84.4850 292° West 168 193 6,100  Climbing Chicago Center
Fri 10:24:46 PM 42.5953 -84.5419 296° West 169 194 6,000  Descending Chicago Center
Fri 10:25:47 PM 42.6158 -84.5994 296° West 169 194 6,100 49 Climbing Chicago Center
Fri 10:26:48 PM 42.6331 -84.6583 292° West 169 194 6,100  Level Chicago Center
Fri 10:27:49 PM 42.6500 -84.7178 291° West 169 194 6,100 -50 Level Chicago Center
Fri 10:28:49 PM 42.6669 -84.7758 292° West 167 192 6,000 50 Descending Chicago Center
Fri 10:29:50 PM 42.6836 -84.8353 291° West 168 193 6,200 49 Climbing Chicago Center
Fri 10:30:51 PM 42.6992 -84.8961 289° West 170 196 6,100 -50 Descending Chicago Center
Fri 10:31:51 PM 42.7161 -84.9542 292° West 169 194 6,100  Level Chicago Center
Fri 10:32:52 PM 42.7333 -85.0139 291° West 169 194 6,100 -49 Level Chicago Center
Fri 10:33:53 PM 42.7533 -85.0731 295° West 172 198 6,000 -50 Descending Chicago Center
Fri 10:34:53 PM 42.7717 -85.1314 293° West 171 197 6,000 -298 Level Chicago Center
Fri 10:35:54 PM 42.7961 -85.2047 294° West 176 203 5,400 -590 Descending Chicago Center
Fri 10:36:55 PM 42.8172 -85.2700 294° West 187 215 4,800 -744 Descending Chicago Center
Fri 10:37:55 PM 42.8392 -85.3344 295° West 188 216 3,900 -893 Descending Chicago Center
Fri 10:38:56 PM 42.8575 -85.4006 291° West 187 215 3,000 -645 Descending Chicago Center
Fri 10:39:56 PM 42.8717 -85.4611 288° West 179 206 2,600 -1,041 Descending Chicago Center
Fri 10:40:57 PM 42.8814 -85.5039 287° West 142 163 900 -1,672 Descending Chicago Center
Fri 10:42:00 PM 42.8667 -85.5167 294° West  Level FlightAware Approximate
Fri 10:49:00 PM 42.8808 -85.5228 294° West  Level Estimated

Login

Don't have an account? Register now (free) for customized features, flight alerts, and more!